This is the latest recevied weather packets stored in our database for station/object SP8EBC-11. If no packets are shown the sender has not sent any weather packets the latest 1 day(s).
| Time | Temp. | Humidity | Pressure | Rain* | Wind** | Luminosity | Snow |
|---|---|---|---|---|---|---|---|
| 1777997520 | 19.44° C | 62% | 990.4 hPa | - | 3.58 m/s, 58° | - | - |
| 1777997400 | 19.44° C | 62% | 990.4 hPa | - | 3.58 m/s, 55° | - | - |
| 1777997280 | 19.44° C | 62% | 990.4 hPa | - | 4.02 m/s, 58° | - | - |
| 1777997161 | 19.44° C | 62% | 990.3 hPa | - | 4.02 m/s, 53° | - | - |
| 1777997040 | 19.44° C | 62% | 990.3 hPa | - | 4.02 m/s, 56° | - | - |
| 1777996920 | 19.44° C | 62% | 990.4 hPa | - | 3.58 m/s, 61° | - | - |
| 1777996800 | 19.44° C | 62% | 990.4 hPa | - | 3.58 m/s, 65° | - | - |
| 1777996680 | 19.44° C | 62% | 990.4 hPa | - | 3.13 m/s, 61° | - | - |
| 1777996559 | 19.44° C | 62% | 990.5 hPa | - | 3.58 m/s, 58° | - | - |
| 1777996440 | 19.44° C | 62% | 990.5 hPa | - | 3.58 m/s, 59° | - | - |
| 1777996320 | 19.44° C | 62% | 990.5 hPa | - | 3.58 m/s, 61° | - | - |
| 1777996200 | 20° C | 62% | 990.6 hPa | - | 3.58 m/s, 58° | - | - |
| 1777996080 | 20° C | 62% | 990.6 hPa | - | 3.58 m/s, 59° | - | - |
| 1777995961 | 20° C | 62% | 990.6 hPa | - | 4.47 m/s, 56° | - | - |
| 1777995840 | 20° C | 62% | 990.5 hPa | - | 4.47 m/s, 54° | - | - |
| 1777995719 | 20° C | 62% | 990.5 hPa | - | 3.58 m/s, 55° | - | - |
| 1777995599 | 20° C | 62% | 990.5 hPa | - | 4.02 m/s, 47° | - | - |
| 1777995479 | 20° C | 62% | 990.4 hPa | - | 3.58 m/s, 52° | - | - |
| 1777995358 | 20° C | 62% | 990.4 hPa | - | 4.02 m/s, 51° | - | - |
| 1777995239 | 20° C | 62% | 990.3 hPa | - | 4.47 m/s, 49° | - | - |
| 1777995119 | 20° C | 62% | 990.3 hPa | - | 3.58 m/s, 60° | - | - |
| 1777994999 | 20° C | 62% | 990.3 hPa | - | 3.58 m/s, 67° | - | - |
| 1777994879 | 20° C | 62% | 990.4 hPa | - | 4.02 m/s, 53° | - | - |
| 1777994758 | 20° C | 62% | 990.5 hPa | - | 4.02 m/s, 47° | - | - |
| 1777994639 | 20° C | 62% | 990.5 hPa | - | 4.02 m/s, 47° | - | - |
* Rain since midnight (hover to see other rain measurements)
** Current wind speed in m/s (hover to see current wind gust speed)